EGJJ - Jersey Airport
Distance from station: E 5mi, 14km
Updated: 02/17/2018 4:50pm
Light drizzle, Few clouds
Light drizzle, Few clouds
 Wind from S
Wind: S 9 mph , 15 km/h
Temperature: 45°F , 7°C
Wind Chill: 40°F , 4°C
Dew Point: 41°F , 5°C
Humidity: 87%
Barometer: 30.21 inHg , 1023 hPa
Summary: Light Drizzle
Clouds: Few Clouds
Visibility: 6 miles , 10 km
Cloud details: Few Clouds 3600 ft
2018/02/18 00:50 EGJJ 180050Z AUTO 19008KT 9999 -DZ FEW036/// 07/05 Q1023 RERA